Schedule Details


Flight Number: CTN436
Departure: Franjo Tudman (LDZA) at 18:40
Arrival: Munich (EDDM) at 19:55
Route: PODET L603 KFT L173 MORED Q112 NAPSA

Weather Information
LDZA 170000Z 26002KT 0300 R04/0650D R22/0650N FG VV002 03/02 Q1021 NOSIG
EDDM 162350Z 00000KT 5000 2000S R08R/1000U BCFG NSC 00/00 Q1020 BECMG 2000
Schedule Frequency

Route Map